Time;durP1;ratioP1;P1;durP2;ratioP2;P2;SDS_P1;SDS_P2;PMS_P1;PMS_P2;Temp;Humidity;BMP_temperature;BMP_pressure;BME280_temperature;BME280_humidity;BME280_pressure;Samples;Min_cycle;Max_cycle;Signal;HPM_P1;HPM_P2
2022/11/10 00:00:52;;;;;;;10.80;2.20;;;12.00;99.90;;;;;;4980043;28;20469;-69
2022/11/10 00:03:21;;;;;;;2.10;1.60;;;11.90;99.90;;;;;;4992276;28;20818;-69
2022/11/10 00:05:48;;;;;;;1.87;1.67;;;12.00;99.90;;;;;;4973279;28;20458;-69
2022/11/10 00:08:15;;;;;;;3.13;1.53;;;12.00;99.90;;;;;;4981303;28;20458;-69
2022/11/10 00:10:57;;;;;;;1.67;1.33;;;12.10;99.90;;;;;;4974751;28;20458;-69
2022/11/10 00:13:25;;;;;;;3.37;1.43;;;12.10;99.90;;;;;;4990065;28;20456;-69
2022/11/10 00:18:38;;;;;;;1.40;0.90;;;12.00;99.90;;;;;;4985599;28;20429;-69
2022/11/10 00:21:07;;;;;;;2.00;1.27;;;12.00;99.90;;;;;;4973660;28;20450;-68
2022/11/10 00:23:34;;;;;;;1.33;1.10;;;11.90;99.90;;;;;;4993034;28;20489;-69
2022/11/10 00:26:00;;;;;;;1.73;1.13;;;11.90;99.90;;;;;;4984664;28;20465;-69
2022/11/10 00:28:30;;;;;;;1.80;1.63;;;11.80;99.90;;;;;;4992368;28;20441;-69
2022/11/10 00:30:57;;;;;;;2.77;1.40;;;11.80;99.90;;;;;;4990953;28;20458;-69
2022/11/10 00:33:24;;;;;;;3.10;1.27;;;11.80;99.90;;;;;;4987800;28;20792;-69
2022/11/10 00:35:52;;;;;;;1.50;1.27;;;11.70;99.90;;;;;;4981202;28;20453;-69
2022/11/10 00:38:19;;;;;;;1.23;1.00;;;11.70;99.90;;;;;;4980206;28;20967;-69
2022/11/10 00:40:45;;;;;;;1.93;1.30;;;11.80;99.90;;;;;;4990591;28;20449;-69
2022/11/10 00:43:12;;;;;;;2.83;1.20;;;11.80;99.90;;;;;;4977850;28;20493;-69
2022/11/10 00:45:42;;;;;;;2.80;1.20;;;11.90;99.90;;;;;;4988070;28;20453;-69
2022/11/10 00:48:09;;;;;;;2.13;1.27;;;11.90;99.90;;;;;;4988307;28;20462;-69
2022/11/10 00:50:36;;;;;;;3.00;1.50;;;12.00;99.90;;;;;;4977245;28;20468;-68
2022/11/10 00:53:04;;;;;;;1.00;0.80;;;12.00;99.90;;;;;;4987495;28;20469;-68
2022/11/10 00:55:31;;;;;;;1.77;1.40;;;11.90;99.90;;;;;;4991549;28;20544;-68
2022/11/10 00:57:58;;;;;;;2.03;1.40;;;11.90;99.90;;;;;;4991032;28;21016;-68
2022/11/10 01:00:25;;;;;;;3.50;1.10;;;12.00;99.90;;;;;;4989924;28;20480;-67
2022/11/10 01:02:52;;;;;;;1.60;1.40;;;12.00;99.90;;;;;;4986361;28;20485;-69
2022/11/10 01:05:18;;;;;;;1.40;1.10;;;11.90;99.90;;;;;;4985275;28;20454;-68
2022/11/10 01:07:45;;;;;;;2.30;1.07;;;11.90;99.90;;;;;;4990733;28;20464;-70
2022/11/10 01:10:13;;;;;;;1.60;1.13;;;11.90;99.90;;;;;;4987185;28;20450;-69
2022/11/10 01:12:40;;;;;;;1.83;1.43;;;11.90;99.90;;;;;;4979840;28;20477;-69
2022/11/10 01:15:08;;;;;;;2.63;1.50;;;11.80;99.90;;;;;;4991289;28;20453;-70
2022/11/10 01:17:35;;;;;;;1.60;1.20;;;11.90;99.90;;;;;;4979526;28;20461;-69
2022/11/10 01:20:02;;;;;;;1.37;0.93;;;11.90;99.90;;;;;;4991249;28;20476;-70
2022/11/10 01:22:30;;;;;;;1.33;1.20;;;11.70;99.90;;;;;;4991921;28;20481;-70
2022/11/10 01:24:56;;;;;;;1.20;0.97;;;11.60;99.90;;;;;;4976824;28;20453;-70
2022/11/10 01:27:24;;;;;;;1.47;1.07;;;11.60;99.90;;;;;;4984363;28;20450;-70
2022/11/10 01:29:51;;;;;;;1.60;1.40;;;11.50;99.90;;;;;;4982383;28;20463;-70
2022/11/10 01:32:18;;;;;;;1.70;1.20;;;11.50;99.90;;;;;;4991292;28;20460;-70
2022/11/10 01:34:45;;;;;;;2.00;1.33;;;11.40;99.90;;;;;;4977851;28;20467;-70
2022/11/10 01:37:12;;;;;;;1.97;1.70;;;11.30;99.90;;;;;;4990348;28;20452;-69
2022/11/10 01:39:38;;;;;;;1.00;0.87;;;11.30;99.90;;;;;;4979140;28;20446;-70
2022/11/10 01:42:06;;;;;;;1.60;1.50;;;11.30;99.90;;;;;;4978447;28;20465;-70
2022/11/10 01:44:36;;;;;;;1.93;1.07;;;11.20;99.90;;;;;;4991177;28;20457;-70
2022/11/10 01:47:03;;;;;;;1.63;1.10;;;11.20;99.90;;;;;;4990454;28;20449;-70
2022/11/10 01:49:32;;;;;;;1.67;1.47;;;11.10;99.90;;;;;;4979805;28;20968;-70
2022/11/10 01:52:04;;;;;;;1.37;1.17;;;11.10;99.90;;;;;;4986112;28;20450;-70
2022/11/10 01:54:34;;;;;;;2.20;1.30;;;11.10;99.90;;;;;;4983116;28;20996;-70
2022/11/10 01:57:05;;;;;;;1.97;1.53;;;11.10;99.90;;;;;;4986020;28;20511;-70
2022/11/10 01:59:36;;;;;;;2.60;1.70;;;11.00;99.90;;;;;;4987005;28;20452;-70
2022/11/10 02:02:11;;;;;;;1.30;1.00;;;11.00;99.90;;;;;;4987857;28;20864;-70
2022/11/10 02:04:38;;;;;;;2.60;1.10;;;11.00;99.90;;;;;;4984438;28;20582;-69
2022/11/10 02:07:06;;;;;;;2.83;2.33;;;10.90;99.90;;;;;;4986337;28;20453;-70
2022/11/10 02:09:33;;;;;;;6.20;1.50;;;11.00;99.90;;;;;;4992746;28;20469;-70
2022/11/10 02:12:00;;;;;;;1.67;1.27;;;10.90;99.90;;;;;;4978969;28;20930;-70
2022/11/10 02:14:27;;;;;;;3.30;1.83;;;10.90;99.90;;;;;;4989121;28;20449;-70
2022/11/10 02:16:55;;;;;;;2.03;1.40;;;10.80;99.90;;;;;;4982624;28;20463;-70
2022/11/10 02:19:24;;;;;;;4.60;1.43;;;10.80;99.90;;;;;;4987615;28;20531;-69
2022/11/10 02:21:52;;;;;;;1.90;1.10;;;10.70;99.90;;;;;;4980856;28;20800;-70
2022/11/10 02:24:19;;;;;;;2.50;1.60;;;10.80;99.90;;;;;;4994154;28;20481;-70
2022/11/10 02:26:50;;;;;;;3.50;1.50;;;10.70;99.90;;;;;;4991184;28;20784;-70
2022/11/10 02:29:17;;;;;;;4.50;1.50;;;10.70;99.90;;;;;;4994440;28;20457;-69
2022/11/10 02:31:44;;;;;;;1.43;1.20;;;10.60;99.90;;;;;;4985887;28;20488;-70
2022/11/10 02:34:11;;;;;;;1.63;1.17;;;10.40;99.90;;;;;;4989174;28;20482;-69
2022/11/10 02:36:38;;;;;;;2.67;1.23;;;10.30;99.90;;;;;;4985988;28;20452;-70
2022/11/10 02:39:06;;;;;;;1.83;1.23;;;10.20;99.90;;;;;;4983518;28;20449;-69
2022/11/10 02:41:33;;;;;;;1.80;0.97;;;10.20;99.90;;;;;;4986866;28;20457;-70
2022/11/10 02:43:59;;;;;;;1.60;1.10;;;10.20;99.90;;;;;;4989489;28;20484;-70
2022/11/10 02:46:26;;;;;;;5.70;1.60;;;10.10;99.90;;;;;;4986338;28;20465;-69
2022/11/10 02:48:53;;;;;;;2.53;1.53;;;10.10;99.90;;;;;;4989418;28;20480;-69
2022/11/10 02:51:20;;;;;;;1.73;1.30;;;10.20;99.90;;;;;;4994054;28;20459;-69
2022/11/10 02:53:48;;;;;;;2.37;1.50;;;10.20;99.90;;;;;;4993548;28;20440;-69
2022/11/10 02:56:17;;;;;;;1.67;1.20;;;10.40;99.90;;;;;;4994538;28;20549;-69
2022/11/10 02:58:43;;;;;;;5.33;1.80;;;10.30;99.90;;;;;;4982391;28;20467;-69
2022/11/10 03:01:10;;;;;;;2.63;1.60;;;10.00;99.90;;;;;;4991808;28;20509;-69
2022/11/10 03:03:37;;;;;;;1.57;1.00;;;9.90;99.90;;;;;;4980602;28;21001;-69
2022/11/10 03:06:04;;;;;;;1.70;1.00;;;9.90;99.90;;;;;;4991153;28;20947;-69
2022/11/10 03:08:31;;;;;;;2.10;1.27;;;9.80;99.90;;;;;;4988453;28;20512;-69
2022/11/10 03:10:58;;;;;;;1.23;1.00;;;9.70;99.90;;;;;;4983338;28;20455;-69
2022/11/10 03:13:26;;;;;;;3.87;1.33;;;9.80;99.90;;;;;;4993906;28;20453;-69
2022/11/10 03:15:53;;;;;;;1.70;1.57;;;9.90;99.90;;;;;;4992955;28;20962;-69
2022/11/10 03:18:20;;;;;;;5.30;1.33;;;9.80;99.90;;;;;;4980468;28;20454;-69
2022/11/10 03:20:48;;;;;;;3.10;1.20;;;9.80;99.90;;;;;;4992590;28;20457;-69
2022/11/10 03:23:16;;;;;;;1.50;1.20;;;9.90;99.90;;;;;;4990059;28;20528;-69
2022/11/10 03:25:43;;;;;;;6.60;1.30;;;10.10;99.90;;;;;;4982886;28;20459;-70
2022/11/10 03:28:10;;;;;;;4.63;1.60;;;10.20;99.90;;;;;;4987324;28;20456;-69
2022/11/10 03:30:38;;;;;;;5.00;1.77;;;10.10;99.90;;;;;;4993424;28;20466;-69
2022/11/10 03:33:06;;;;;;;4.37;1.57;;;9.90;99.90;;;;;;4980690;28;20450;-69
2022/11/10 03:35:33;;;;;;;1.50;1.03;;;9.80;99.90;;;;;;4993854;28;20458;-69
2022/11/10 03:37:59;;;;;;;1.50;0.87;;;9.70;99.90;;;;;;4980540;28;20550;-69
2022/11/10 03:40:26;;;;;;;1.90;1.10;;;9.70;99.90;;;;;;4989196;28;20809;-69
2022/11/10 03:42:53;;;;;;;2.30;2.10;;;9.80;99.90;;;;;;4986672;28;20471;-69
2022/11/10 03:45:20;;;;;;;2.30;1.10;;;9.60;99.90;;;;;;4986193;28;20469;-69
2022/11/10 03:47:49;;;;;;;2.00;1.23;;;9.60;99.90;;;;;;4975447;28;20460;-69
2022/11/10 03:50:17;;;;;;;2.97;1.70;;;9.50;99.90;;;;;;4981599;28;20537;-69
2022/11/10 03:52:45;;;;;;;2.80;1.63;;;;;;;;;;4977243;28;20958;-71
2022/11/10 03:55:12;;;;;;;1.57;1.20;;;;;;;;;;4992085;28;20475;-72
2022/11/10 03:57:39;;;;;;;1.90;1.03;;;;;;;;;;4988949;28;20457;-70
2022/11/10 04:00:08;;;;;;;1.50;1.03;;;9.50;99.90;;;;;;4974917;28;20938;-70
2022/11/10 04:02:35;;;;;;;1.53;1.40;;;9.30;99.90;;;;;;4984479;28;20450;-68
2022/11/10 04:10:45;;;;;;;2.00;1.80;;;;;;;;;;4971819;28;20444;-71
2022/11/10 04:15:57;;;;;;;5.03;1.67;;;;;;;;;;4980553;28;20445;-69
2022/11/10 04:18:25;;;;;;;1.33;1.03;;;;;;;;;;4982469;28;20454;-69
2022/11/10 04:20:54;;;;;;;2.30;1.13;;;;;;;;;;4983371;28;20944;-69
2022/11/10 04:23:27;;;;;;;1.80;1.30;;;;;;;;;;4987930;28;20481;-70
2022/11/10 04:28:40;;;;;;;2.50;1.60;;;;;;;;;;4980951;28;20424;-69
2022/11/10 04:31:07;;;;;;;7.07;1.53;;;;;;;;;;4979821;28;20469;-69
2022/11/10 04:33:35;;;;;;;3.40;1.97;;;;;;;;;;4981878;28;20469;-68
2022/11/10 04:36:04;;;;;;;1.33;1.23;;;;;;;;;;4976664;28;21003;-69
2022/11/10 04:38:31;;;;;;;2.63;1.77;;;;;;;;;;4982575;28;20450;-69
2022/11/10 04:40:59;;;;;;;2.43;2.10;;;;;;;;;;4980071;28;20967;-70
2022/11/10 04:43:26;;;;;;;1.70;1.23;;;;;;;;;;4983571;28;20488;-69
2022/11/10 04:45:53;;;;;;;3.43;1.20;;;;;;;;;;4974804;28;20836;-69
2022/11/10 04:48:20;;;;;;;4.10;1.30;;;;;;;;;;4984536;28;20461;-70
2022/11/10 04:50:47;;;;;;;1.17;1.00;;;;;;;;;;4973722;28;20464;-69
2022/11/10 04:53:16;;;;;;;2.10;1.77;;;;;;;;;;4984451;28;20468;-69
2022/11/10 04:55:43;;;;;;;2.37;1.30;;;;;;;;;;4972912;28;20463;-69
2022/11/10 04:58:11;;;;;;;1.63;1.20;;;;;;;;;;4985138;28;20463;-70
2022/11/10 05:00:38;;;;;;;3.60;1.80;;;;;;;;;;4978150;28;20832;-70
2022/11/10 05:03:06;;;;;;;1.17;1.00;;;;;;;;;;4992296;28;20448;-69
2022/11/10 05:05:34;;;;;;;1.80;1.40;;;;;;;;;;4973275;28;20465;-69
2022/11/10 05:08:01;;;;;;;2.10;1.40;;;;;;;;;;4981182;28;20516;-69
2022/11/10 05:10:30;;;;;;;4.00;1.43;;;;;;;;;;4974146;28;20453;-69
2022/11/10 05:12:59;;;;;;;2.13;1.17;;;;;;;;;;4985011;28;20456;-69
2022/11/10 05:15:26;;;;;;;2.20;1.40;;;;;;;;;;4979492;28;20456;-69
2022/11/10 05:17:54;;;;;;;0.90;0.80;;;9.30;99.90;;;;;;4978576;28;20450;-69
2022/11/10 05:20:23;;;;;;;2.33;1.60;;;8.20;99.90;;;;;;4992117;28;20453;-69
2022/11/10 05:25:34;;;;;;;2.70;1.43;;;8.10;99.90;;;;;;4971615;28;20859;-69
2022/11/10 05:28:01;;;;;;;2.43;1.70;;;8.00;99.90;;;;;;4985792;28;20488;-69
2022/11/10 05:30:28;;;;;;;2.10;1.57;;;8.00;99.90;;;;;;4972292;28;20461;-70
2022/11/10 05:32:55;;;;;;;3.10;1.73;;;8.00;99.90;;;;;;4984545;28;20773;-69
2022/11/10 05:35:22;;;;;;;2.43;1.40;;;8.00;99.90;;;;;;4972640;28;20455;-69
2022/11/10 05:37:49;;;;;;;2.17;1.47;;;8.00;99.90;;;;;;4984865;28;20479;-69
2022/11/10 05:40:16;;;;;;;2.67;1.67;;;7.90;99.90;;;;;;4978522;28;20460;-69
2022/11/10 05:42:46;;;;;;;2.40;1.67;;;8.00;99.90;;;;;;4977734;28;20458;-69
2022/11/10 05:45:13;;;;;;;1.67;1.40;;;7.90;99.90;;;;;;4980531;28;20898;-69
2022/11/10 05:47:40;;;;;;;3.50;1.57;;;7.90;99.90;;;;;;4976935;28;20447;-69
2022/11/10 05:50:08;;;;;;;2.60;1.63;;;7.80;99.90;;;;;;4980033;28;20453;-69
2022/11/10 05:52:39;;;;;;;4.50;1.33;;;7.80;99.90;;;;;;4977236;28;20800;-68
2022/11/10 05:55:06;;;;;;;1.67;1.10;;;7.80;99.90;;;;;;4978990;28;20985;-69
2022/11/10 05:57:33;;;;;;;2.33;1.80;;;7.80;99.90;;;;;;4978597;28;20463;-70
2022/11/10 06:00:01;;;;;;;1.63;1.40;;;7.70;99.90;;;;;;4979000;28;21263;-69
2022/11/10 06:02:28;;;;;;;1.10;0.97;;;7.80;99.90;;;;;;4983731;28;20456;-69
2022/11/10 06:04:55;;;;;;;1.70;1.37;;;7.70;99.90;;;;;;4972331;28;21013;-68
2022/11/10 06:07:22;;;;;;;1.63;1.20;;;7.70;99.90;;;;;;4984200;28;20484;-69
2022/11/10 06:09:49;;;;;;;1.73;1.10;;;7.70;99.90;;;;;;4977253;28;20461;-69
2022/11/10 06:12:15;;;;;;;2.30;2.00;;;7.70;99.90;;;;;;4979785;28;20451;-70
2022/11/10 06:14:42;;;;;;;1.37;1.00;;;7.80;99.90;;;;;;4976495;28;20460;-70
2022/11/10 06:17:10;;;;;;;3.47;1.70;;;7.90;99.90;;;;;;4980704;28;20457;-70
2022/11/10 06:19:37;;;;;;;2.73;1.70;;;7.90;99.90;;;;;;4975675;28;20938;-69
2022/11/10 06:22:04;;;;;;;2.10;1.13;;;7.90;99.90;;;;;;4980342;28;20839;-69
2022/11/10 06:24:31;;;;;;;2.30;1.30;;;7.70;99.90;;;;;;4976276;28;20998;-69
2022/11/10 06:26:58;;;;;;;3.50;1.37;;;7.60;99.90;;;;;;4980076;28;20455;-69
2022/11/10 06:29:24;;;;;;;2.03;1.33;;;7.50;99.90;;;;;;4976016;28;20461;-70
2022/11/10 06:31:51;;;;;;;2.57;1.30;;;7.50;99.90;;;;;;4980238;28;20470;-69
2022/11/10 06:34:20;;;;;;;2.63;1.50;;;7.70;99.90;;;;;;4975704;28;20461;-70
2022/11/10 06:36:47;;;;;;;2.60;1.50;;;7.80;99.90;;;;;;4981157;28;20458;-69
2022/11/10 06:39:14;;;;;;;2.93;1.77;;;7.80;99.90;;;;;;4974776;28;20463;-69
2022/11/10 06:41:41;;;;;;;3.03;1.60;;;7.70;99.90;;;;;;4979178;28;20453;-69
2022/11/10 06:44:07;;;;;;;3.17;1.27;;;8.00;99.90;;;;;;4984588;28;20491;-70
2022/11/10 06:46:34;;;;;;;7.20;1.50;;;7.80;99.90;;;;;;4971797;28;20461;-69
2022/11/10 06:49:01;;;;;;;3.63;1.23;;;7.70;99.90;;;;;;4985181;28;20488;-69
2022/11/10 06:51:29;;;;;;;2.77;1.87;;;7.60;99.90;;;;;;4974595;28;20463;-70
2022/11/10 06:53:56;;;;;;;2.57;1.77;;;7.50;99.90;;;;;;4987554;28;20810;-69
2022/11/10 06:56:23;;;;;;;3.70;2.07;;;7.70;99.90;;;;;;4975484;28;20462;-70
2022/11/10 06:58:50;;;;;;;2.57;1.80;;;7.70;99.90;;;;;;4987749;28;20450;-70
2022/11/10 07:01:17;;;;;;;2.10;1.90;;;7.70;99.90;;;;;;4985692;28;20983;-69
2022/11/10 07:03:43;;;;;;;3.97;2.00;;;7.80;99.90;;;;;;4980725;28;20535;-71
2022/11/10 07:06:10;;;;;;;4.33;2.30;;;7.90;99.90;;;;;;4983641;28;20955;-70
2022/11/10 07:08:38;;;;;;;2.90;1.30;;;8.40;99.90;;;;;;4983760;28;20980;-69
2022/11/10 07:11:05;;;;;;;2.57;1.50;;;8.30;99.90;;;;;;4983366;28;20446;-70
2022/11/10 07:13:32;;;;;;;3.10;1.90;;;8.10;99.90;;;;;;4987831;28;20535;-70
2022/11/10 07:15:59;;;;;;;2.17;1.77;;;8.10;99.90;;;;;;4974564;28;20468;-69
2022/11/10 07:18:25;;;;;;;2.07;1.67;;;8.00;99.90;;;;;;4988084;28;20468;-69
2022/11/10 07:20:52;;;;;;;2.13;1.73;;;7.90;99.90;;;;;;4974334;28;20449;-69
2022/11/10 07:23:19;;;;;;;2.20;1.77;;;7.90;99.90;;;;;;4987726;28;20452;-69
2022/11/10 07:25:47;;;;;;;1.87;1.50;;;7.90;99.90;;;;;;4974286;28;20495;-69
2022/11/10 07:28:14;;;;;;;3.63;2.13;;;7.90;99.90;;;;;;4979773;28;20488;-69
2022/11/10 07:30:41;;;;;;;2.70;1.87;;;8.00;99.90;;;;;;4981719;28;20467;-69
2022/11/10 07:33:11;;;;;;;2.90;1.40;;;8.00;99.90;;;;;;4979432;28;20464;-69
2022/11/10 07:35:38;;;;;;;3.60;2.63;;;8.20;99.90;;;;;;4980902;28;20462;-69
2022/11/10 07:38:07;;;;;;;2.07;1.77;;;8.20;99.90;;;;;;4980710;28;20455;-69
2022/11/10 07:40:35;;;;;;;2.57;1.90;;;8.30;99.90;;;;;;4989559;28;20961;-69
2022/11/10 07:43:03;;;;;;;4.03;1.90;;;8.40;99.90;;;;;;4974385;28;20473;-70
2022/11/10 07:45:31;;;;;;;2.73;1.77;;;8.40;99.90;;;;;;4987520;28;20514;-71
2022/11/10 07:47:59;;;;;;;3.13;2.00;;;8.40;99.90;;;;;;4973947;28;20460;-70
2022/11/10 07:50:26;;;;;;;3.10;1.77;;;8.50;99.90;;;;;;4987273;28;20453;-69
2022/11/10 07:52:53;;;;;;;3.30;2.43;;;8.50;99.90;;;;;;4973395;28;20454;-70
2022/11/10 07:55:20;;;;;;;2.47;1.97;;;8.50;99.90;;;;;;4986671;28;20464;-70
2022/11/10 07:57:47;;;;;;;1.77;1.20;;;8.60;99.90;;;;;;4973803;28;20462;-70
2022/11/10 08:00:17;;;;;;;4.90;2.57;;;8.70;99.90;;;;;;4988085;28;20473;-70
2022/11/10 08:02:44;;;;;;;6.13;1.70;;;8.80;99.90;;;;;;4991707;28;20445;-69
2022/11/10 08:05:10;;;;;;;1.53;1.43;;;8.80;99.90;;;;;;4977608;28;20486;-70
2022/11/10 08:07:37;;;;;;;2.60;1.73;;;8.80;99.90;;;;;;4981151;28;20536;-69
2022/11/10 08:10:04;;;;;;;3.50;2.00;;;8.90;99.90;;;;;;4975522;28;20454;-69
2022/11/10 08:12:31;;;;;;;4.30;2.30;;;9.00;99.90;;;;;;4983473;28;20892;-69
2022/11/10 08:14:58;;;;;;;3.50;2.13;;;9.00;99.90;;;;;;4976473;28;20864;-69
2022/11/10 08:17:26;;;;;;;1.93;1.53;;;9.00;99.90;;;;;;4984007;28;20445;-68
2022/11/10 08:19:53;;;;;;;8.03;2.07;;;9.10;99.90;;;;;;4975815;28;20490;-68
2022/11/10 08:22:20;;;;;;;3.27;2.37;;;9.20;99.90;;;;;;4983908;28;20456;-69
2022/11/10 08:24:47;;;;;;;3.00;2.40;;;9.30;99.90;;;;;;4975180;28;20482;-68
2022/11/10 08:27:13;;;;;;;2.07;1.87;;;9.40;99.90;;;;;;4983986;28;20457;-68
2022/11/10 08:29:40;;;;;;;2.93;2.07;;;9.50;99.90;;;;;;4975018;28;20451;-68
2022/11/10 08:32:07;;;;;;;2.80;2.20;;;9.50;99.90;;;;;;4983651;28;20928;-69
2022/11/10 08:34:35;;;;;;;2.93;2.00;;;9.60;99.90;;;;;;4975653;28;20470;-68
2022/11/10 08:37:02;;;;;;;5.50;2.33;;;9.70;99.90;;;;;;4984069;28;20453;-69
2022/11/10 08:39:29;;;;;;;3.23;2.33;;;9.80;99.90;;;;;;4974964;28;20485;-69
2022/11/10 08:41:56;;;;;;;3.00;2.10;;;9.80;99.90;;;;;;4961890;28;20453;-68
2022/11/10 08:44:22;;;;;;;9.80;2.80;;;9.90;99.90;;;;;;4985936;28;20461;-68
2022/11/10 08:46:50;;;;;;;4.90;1.63;;;10.00;99.90;;;;;;4972030;28;20457;-68
2022/11/10 08:49:17;;;;;;;3.43;2.30;;;10.20;99.90;;;;;;4986125;28;20457;-69
2022/11/10 08:51:45;;;;;;;3.27;2.10;;;10.20;99.90;;;;;;4972099;28;20455;-69
2022/11/10 08:54:12;;;;;;;2.43;1.90;;;10.20;99.90;;;;;;4985843;28;20452;-68
2022/11/10 08:56:39;;;;;;;4.30;2.27;;;10.40;99.90;;;;;;4971993;28;20459;-67
2022/11/10 08:59:05;;;;;;;2.53;1.57;;;10.40;99.90;;;;;;4985639;28;20464;-70
2022/11/10 09:01:32;;;;;;;2.03;1.67;;;10.60;99.90;;;;;;4985400;28;20855;-70
2022/11/10 09:03:59;;;;;;;3.60;1.50;;;10.60;99.90;;;;;;4978677;28;20462;-70
2022/11/10 09:06:26;;;;;;;5.17;1.60;;;10.60;99.90;;;;;;4979038;28;20486;-70
2022/11/10 09:08:54;;;;;;;1.70;1.40;;;10.60;99.90;;;;;;4983438;28;20468;-70
2022/11/10 09:11:21;;;;;;;1.77;1.67;;;10.70;99.90;;;;;;4978801;28;20968;-70
2022/11/10 09:13:47;;;;;;;2.40;1.53;;;10.80;99.90;;;;;;4983790;28;20458;-70
2022/11/10 09:16:15;;;;;;;1.37;1.20;;;10.80;99.90;;;;;;4973118;28;20658;-70
2022/11/10 09:18:41;;;;;;;2.17;1.40;;;11.00;99.90;;;;;;4984318;28;20901;-70
2022/11/10 09:21:10;;;;;;;3.53;1.57;;;11.20;99.90;;;;;;4973140;28;20456;-70
2022/11/10 09:23:38;;;;;;;2.80;1.40;;;11.30;99.90;;;;;;4984062;28;20537;-70
2022/11/10 09:26:06;;;;;;;1.53;1.27;;;11.40;99.90;;;;;;4973506;28;20494;-70
2022/11/10 09:28:34;;;;;;;1.17;1.07;;;11.60;99.90;;;;;;4984400;28;20462;-70
2022/11/10 09:31:01;;;;;;;2.20;0.80;;;11.60;99.90;;;;;;4973796;28;20466;-70
2022/11/10 09:33:28;;;;;;;1.13;0.80;;;11.70;49.90;;;;;;4983577;28;20817;-71
2022/11/10 09:35:58;;;;;;;2.67;1.10;;;11.80;1.00;;;;;;4973672;28;20458;-70
2022/11/10 09:38:25;;;;;;;1.00;0.57;;;12.00;1.00;;;;;;4983572;28;20454;-70
2022/11/10 09:40:59;;;;;;;1.83;1.23;;;12.20;99.90;;;;;;4981027;28;20461;-70
2022/11/10 09:43:34;;;;;;;2.60;1.20;;;12.30;99.90;;;;;;4981929;28;20524;-70
2022/11/10 09:46:08;;;;;;;1.53;1.00;;;12.40;1.00;;;;;;4974528;28;20483;-70
2022/11/10 09:48:38;;;;;;;2.20;0.87;;;12.50;1.00;;;;;;4984130;28;20454;-69
2022/11/10 09:51:10;;;;;;;1.20;0.70;;;12.50;1.00;;;;;;4973113;28;20458;-69
2022/11/10 09:53:42;;;;;;;1.87;1.00;;;12.60;99.90;;;;;;4984640;28;20453;-69
2022/11/10 09:56:14;;;;;;;3.90;0.70;;;12.70;17.30;;;;;;4985277;28;20458;-69
2022/11/10 09:58:45;;;;;;;3.20;0.60;;;12.70;99.90;;;;;;4972754;28;20973;-70
2022/11/10 10:01:26;;;;;;;1.43;0.80;;;12.70;1.00;;;;;;4991868;28;20481;-71
2022/11/10 10:04:01;;;;;;;1.93;0.90;;;12.80;1.00;;;;;;4985854;28;20446;-70
2022/11/10 10:06:28;;;;;;;1.43;1.03;;;12.90;22.10;;;;;;4972538;28;20503;-69
2022/11/10 10:09:09;;;;;;;2.20;0.80;;;13.00;99.90;;;;;;4979715;28;20515;-69
2022/11/10 10:11:53;;;;;;;2.13;1.10;;;13.10;97.10;;;;;;4975159;28;20951;-68
2022/11/10 10:14:47;;;;;;;6.07;1.00;;;13.10;41.20;;;;;;4981025;28;20803;-69
2022/11/10 10:17:22;;;;;;;1.77;1.00;;;13.10;99.90;;;;;;4972897;28;20846;-71
2022/11/10 10:19:56;;;;;;;1.57;0.70;;;13.30;99.90;;;;;;4974566;28;20464;-69
2022/11/10 10:22:43;;;;;;;1.63;0.70;;;13.30;1.00;;;;;;4980734;28;20461;-69
2022/11/10 10:25:15;;;;;;;1.63;0.70;;;13.40;99.90;;;;;;4973012;28;20478;-69
2022/11/10 10:27:46;;;;;;;5.73;0.90;;;13.40;1.00;;;;;;4988549;28;20444;-69
2022/11/10 10:30:17;;;;;;;2.53;1.10;;;13.50;99.90;;;;;;4975952;28;20462;-70
2022/11/10 10:32:44;;;;;;;2.80;0.90;;;13.50;1.00;;;;;;4988112;28;20453;-71
2022/11/10 10:35:15;;;;;;;3.20;1.20;;;13.60;1.00;;;;;;4975941;28;20461;-69
2022/11/10 10:37:45;;;;;;;0.90;0.70;;;13.70;1.00;;;;;;4988231;28;20457;-70
2022/11/10 10:40:17;;;;;;;6.00;1.43;;;13.60;1.00;;;;;;4981852;28;20449;-70
2022/11/10 10:42:45;;;;;;;2.60;1.03;;;13.70;1.00;;;;;;4982322;28;20674;-70
2022/11/10 10:45:31;;;;;;;2.03;0.90;;;13.70;1.00;;;;;;4986252;28;20486;-70
2022/11/10 10:47:58;;;;;;;3.03;1.23;;;13.80;1.00;;;;;;4976399;28;20447;-70
2022/11/10 10:50:31;;;;;;;2.07;1.07;;;13.90;1.00;;;;;;4990511;28;20457;-69
2022/11/10 10:53:14;;;;;;;1.43;0.80;;;13.90;1.00;;;;;;4976507;28;20458;-70
2022/11/10 10:55:47;;;;;;;6.23;0.80;;;14.00;1.00;;;;;;4980808;28;20464;-69
2022/11/10 10:58:26;;;;;;;1.53;0.63;;;14.10;1.00;;;;;;4987890;28;20443;-70
2022/11/10 11:00:58;;;;;;;2.97;0.73;;;14.00;1.00;;;;;;4984941;28;20479;-71
2022/11/10 11:03:29;;;;;;;4.40;1.07;;;14.20;1.00;;;;;;4995686;28;20542;-70
2022/11/10 11:06:18;;;;;;;1.17;1.00;;;14.20;1.00;;;;;;4978283;28;20492;-70
2022/11/10 11:08:55;;;;;;;1.80;0.80;;;14.20;99.90;;;;;;4987561;28;20473;-70
2022/11/10 11:11:25;;;;;;;1.97;0.70;;;14.40;99.90;;;;;;4980934;28;20450;-70
2022/11/10 11:13:52;;;;;;;2.07;0.70;;;14.40;99.90;;;;;;4989880;28;20456;-70
2022/11/10 11:16:21;;;;;;;3.70;0.70;;;14.40;99.90;;;;;;4979682;28;20458;-70
2022/11/10 11:18:47;;;;;;;0.90;0.77;;;14.60;99.90;;;;;;4988642;28;20824;-70
2022/11/10 11:21:26;;;;;;;5.07;0.60;;;14.60;99.90;;;;;;4980234;28;20455;-70
2022/11/10 11:24:16;;;;;;;0.93;0.80;;;14.70;99.90;;;;;;4987400;28;20516;-70
2022/11/10 11:26:50;;;;;;;6.50;1.00;;;14.70;99.90;;;;;;4977157;28;20482;-70
2022/11/10 11:29:40;;;;;;;2.50;0.70;;;14.70;99.90;;;;;;4980696;28;20459;-70
2022/11/10 11:32:21;;;;;;;1.93;0.90;;;14.60;99.90;;;;;;4978496;28;20480;-70
2022/11/10 11:35:00;;;;;;;3.73;0.73;;;14.90;99.90;;;;;;4986533;28;20437;-69
2022/11/10 11:37:35;;;;;;;2.17;0.80;;;14.90;99.90;;;;;;4986133;28;20474;-70
2022/11/10 11:40:15;;;;;;;0.90;0.50;;;14.90;99.90;;;;;;4989911;28;20449;-70
2022/11/10 11:42:56;;;;;;;1.83;0.87;;;15.10;99.90;;;;;;4987184;28;20441;-70
2022/11/10 11:45:33;;;;;;;3.80;1.03;;;14.90;99.90;;;;;;4988625;28;20512;-70
2022/11/10 11:48:16;;;;;;;2.60;0.90;;;15.10;99.90;;;;;;4981798;28;20537;-71
2022/11/10 11:50:50;;;;;;;6.77;0.83;;;15.20;99.90;;;;;;4985119;28;20987;-71
2022/11/10 11:53:37;;;;;;;0.77;0.40;;;15.10;99.90;;;;;;4990949;28;20464;-70
2022/11/10 11:56:17;;;;;;;1.20;0.57;;;15.20;99.90;;;;;;4982992;28;20460;-70
2022/11/10 11:58:51;;;;;;;1.13;0.73;;;15.20;99.90;;;;;;4984220;28;20446;-71
2022/11/10 12:01:38;;;;;;;0.93;0.70;;;15.30;99.90;;;;;;5001977;28;20507;-69
2022/11/10 12:04:29;;;;;;;0.80;0.50;;;15.40;99.90;;;;;;4982556;28;20461;-71
2022/11/10 12:07:08;;;;;;;4.80;0.80;;;15.20;99.90;;;;;;4995889;28;20474;-70
2022/11/10 12:09:43;;;;;;;3.87;0.77;;;15.10;99.90;;;;;;4988818;28;20547;-69
2022/11/10 12:12:42;;;;;;;2.43;0.80;;;15.30;99.90;;;;;;4983156;28;20442;-71
2022/11/10 12:15:23;;;;;;;1.27;0.80;;;15.10;99.90;;;;;;4993152;28;20454;-69
2022/11/10 12:17:59;;;;;;;1.20;0.50;;;15.20;99.90;;;;;;4979238;28;20460;-70
2022/11/10 12:20:37;;;;;;;1.63;0.63;;;15.20;99.90;;;;;;4979411;28;20446;-71
2022/11/10 12:23:14;;;;;;;0.80;0.60;;;15.30;99.90;;;;;;4995451;28;20449;-70
2022/11/10 12:25:50;;;;;;;2.00;0.90;;;15.10;99.90;;;;;;4982390;28;20843;-67
2022/11/10 12:28:20;;;;;;;2.30;0.70;;;15.20;99.90;;;;;;4995413;28;20444;-71
2022/11/10 12:30:51;;;;;;;1.10;0.70;;;15.30;99.90;;;;;;4983108;28;20462;-69
2022/11/10 12:33:31;;;;;;;0.70;0.60;;;15.30;99.90;;;;;;4982846;28;20453;-70
2022/11/10 12:36:04;;;;;;;1.20;0.70;;;15.50;99.90;;;;;;4983791;28;20457;-70
2022/11/10 12:38:44;;;;;;;2.03;0.60;;;15.70;99.90;;;;;;4993127;28;20457;-70
2022/11/10 12:41:15;;;;;;;1.60;0.70;;;15.40;99.90;;;;;;4992001;28;20527;-69
2022/11/10 12:43:53;;;;;;;1.03;0.60;;;15.50;99.90;;;;;;4993377;28;20459;-70
2022/11/10 12:46:20;;;;;;;0.90;0.50;;;15.40;99.90;;;;;;4994715;28;20473;-69
2022/11/10 12:49:04;;;;;;;2.97;0.60;;;15.30;99.90;;;;;;4982338;28;20930;-70
2022/11/10 12:51:36;;;;;;;2.13;0.60;;;15.40;99.90;;;;;;4993597;28;20469;-69
2022/11/10 12:54:02;;;;;;;5.00;0.90;;;15.40;99.90;;;;;;4987097;28;20477;-72
2022/11/10 12:56:36;;;;;;;1.93;0.57;;;15.50;99.90;;;;;;4992236;28;20450;-70
2022/11/10 12:59:32;;;;;;;1.63;1.07;;;15.40;99.90;;;;;;4989934;28;20446;-71
2022/11/10 13:02:02;;;;;;;2.70;0.77;;;15.70;99.90;;;;;;5005815;28;20999;-69
2022/11/10 13:04:30;;;;;;;1.67;0.67;;;15.50;99.90;;;;;;5007647;28;20448;-70
2022/11/10 13:07:01;;;;;;;1.17;1.07;;;15.90;99.90;;;;;;4990229;28;20486;-69
2022/11/10 13:09:31;;;;;;;0.93;0.63;;;15.60;99.90;;;;;;5005405;28;20468;-68
2022/11/10 13:12:16;;;;;;;1.73;0.70;;;15.70;99.90;;;;;;4992939;28;20449;-69
2022/11/10 13:14:44;;;;;;;1.43;0.87;;;16.30;99.90;;;;;;4990040;28;20929;-73
2022/11/10 13:17:53;;;;;;;0.70;0.50;;;16.20;99.90;;;;;;4991466;28;20457;-71
2022/11/10 13:20:45;;;;;;;3.93;0.93;;;16.00;99.90;;;;;;4995135;28;20513;-70
2022/11/10 13:23:24;;;;;;;2.40;0.60;;;16.50;99.90;;;;;;4987387;28;20455;-71
2022/11/10 13:25:57;;;;;;;3.27;0.70;;;16.60;99.90;;;;;;4985171;28;20836;-70
2022/11/10 13:28:56;;;;;;;1.30;0.70;;;16.70;99.90;;;;;;4974914;28;20446;-70
2022/11/10 13:31:50;;;;;;;1.03;0.67;;;17.20;99.90;;;;;;4986742;28;20857;-71